Time;durP1;ratioP1;P1;durP2;ratioP2;P2;SDS_P1;SDS_P2;PMS_P1;PMS_P2;Temp;Humidity;BMP_temperature;BMP_pressure;BME280_temperature;BME280_humidity;BME280_pressure;Samples;Min_cycle;Max_cycle;Signal;HPM_P1;HPM_P2
2022/11/11 00:01:12;;;;;;;1.00;1.00;;;12.00;99.90;;;;;;5077800;28;20264;-80
2022/11/11 00:03:37;;;;;;;0.70;0.70;;;12.00;99.90;;;;;;5091365;28;20223;-80
2022/11/11 00:06:09;;;;;;;0.50;0.50;;;12.00;99.90;;;;;;5097720;28;20199;-79
2022/11/11 00:08:35;;;;;;;1.27;1.15;;;12.00;99.90;;;;;;5097729;28;20682;-80
2022/11/11 00:11:05;;;;;;;6.80;1.15;;;12.00;99.90;;;;;;5097824;28;20206;-79
2022/11/11 00:13:31;;;;;;;11.70;0.70;;;12.10;99.90;;;;;;5096860;28;20228;-80
2022/11/11 00:16:23;;;;;;;0.50;0.50;;;12.10;99.90;;;;;;5097890;28;20219;-81
2022/11/11 00:27:12;;;;;;;1.40;1.30;;;12.00;99.90;;;;;;5096059;28;20727;-81
2022/11/11 00:29:39;;;;;;;0.40;0.40;;;12.00;99.90;;;;;;5111309;28;20210;-81
2022/11/11 00:32:21;;;;;;;0.60;0.60;;;12.00;99.90;;;;;;5115632;28;20223;-83
2022/11/11 00:37:36;;;;;;;1.60;1.25;;;11.90;99.90;;;;;;5116998;28;20218;-82
2022/11/11 00:40:02;;;;;;;0.88;0.88;;;11.90;99.90;;;;;;5117338;28;20757;-81
2022/11/11 00:42:32;;;;;;;2.08;1.70;;;11.80;99.90;;;;;;5123077;28;20197;-81
2022/11/11 00:44:58;;;;;;;0.50;0.50;;;11.80;99.90;;;;;;5118493;28;20710;-81
2022/11/11 00:53:11;;;;;;;0.50;0.50;;;11.90;99.90;;;;;;5117740;28;20202;-80
2022/11/11 00:55:37;;;;;;;0.73;0.73;;;11.80;99.90;;;;;;5098888;28;20250;-81
2022/11/11 00:58:03;;;;;;;0.50;0.50;;;11.80;99.90;;;;;;5098863;28;20188;-81
2022/11/11 01:00:29;;;;;;;1.27;0.80;;;11.80;99.90;;;;;;5116513;28;20198;-80
2022/11/11 01:02:57;;;;;;;0.50;0.50;;;11.90;99.90;;;;;;5117202;28;20191;-80
2022/11/11 01:05:22;;;;;;;0.73;0.73;;;11.90;99.90;;;;;;5099384;28;20288;-80
2022/11/11 01:07:49;;;;;;;0.50;0.50;;;11.90;99.90;;;;;;5098518;28;20202;-80
2022/11/11 01:10:37;;;;;;;0.82;0.82;;;11.90;99.90;;;;;;5099133;28;20651;-80
2022/11/11 01:13:15;;;;;;;1.13;1.02;;;11.90;99.90;;;;;;5099282;28;20195;-80
2022/11/11 01:15:44;;;;;;;0.43;0.43;;;11.90;99.90;;;;;;5099507;28;20192;-81
2022/11/11 01:18:14;;;;;;;0.60;0.60;;;11.90;99.90;;;;;;5108190;28;20204;-80
2022/11/11 01:20:41;;;;;;;0.90;0.90;;;11.90;99.90;;;;;;5078956;28;20207;-81
2022/11/11 01:23:09;;;;;;;0.93;0.93;;;11.90;99.90;;;;;;5079015;28;20197;-80
2022/11/11 01:25:36;;;;;;;0.93;0.93;;;11.90;99.90;;;;;;5096629;28;20694;-80
2022/11/11 01:28:03;;;;;;;0.40;0.40;;;12.00;99.90;;;;;;5079857;28;20192;-79
2022/11/11 01:30:31;;;;;;;0.80;0.80;;;12.00;99.90;;;;;;5097628;28;20189;-80
2022/11/11 01:32:56;;;;;;;1.20;1.13;;;12.00;99.90;;;;;;5097658;28;20196;-79
2022/11/11 01:35:22;;;;;;;0.80;0.80;;;12.00;99.90;;;;;;5081054;28;20200;-80
2022/11/11 01:37:48;;;;;;;0.60;0.60;;;12.00;99.90;;;;;;5078806;28;20188;-80
2022/11/11 01:40:14;;;;;;;0.98;0.85;;;12.10;99.90;;;;;;5081688;28;20207;-80
2022/11/11 01:42:47;;;;;;;0.60;0.60;;;12.10;99.90;;;;;;5084086;28;20200;-79
2022/11/11 01:45:50;;;;;;;0.60;0.60;;;12.10;99.90;;;;;;5085564;28;20202;-80
2022/11/11 01:51:39;;;;;;;0.50;0.50;;;12.20;99.90;;;;;;5101137;28;20227;-80
2022/11/11 01:54:13;;;;;;;0.60;0.60;;;12.20;99.90;;;;;;5082938;28;20243;-79
2022/11/11 01:56:41;;;;;;;0.57;0.57;;;12.30;99.90;;;;;;5101892;28;20195;-80
2022/11/11 01:59:11;;;;;;;0.68;0.68;;;12.20;99.90;;;;;;5103571;28;20215;-80
2022/11/11 02:01:38;;;;;;;0.60;0.60;;;12.20;99.90;;;;;;5100441;28;20195;-78
2022/11/11 02:06:57;;;;;;;3.33;1.13;;;12.20;99.90;;;;;;5117320;28;20222;-78
2022/11/11 02:09:24;;;;;;;1.27;1.17;;;12.30;99.90;;;;;;5098363;28;20564;-78
2022/11/11 02:14:45;;;;;;;2.95;1.58;;;12.30;99.90;;;;;;5114845;28;20258;-78
2022/11/11 02:17:14;;;;;;;0.57;0.57;;;12.30;99.90;;;;;;5098256;28;20198;-78
2022/11/11 02:20:00;;;;;;;1.17;0.90;;;12.30;99.90;;;;;;5116132;28;20192;-78
2022/11/11 02:22:38;;;;;;;2.22;1.13;;;12.30;99.90;;;;;;5097907;28;20732;-78
2022/11/11 02:25:07;;;;;;;1.38;1.17;;;12.30;99.90;;;;;;5097322;28;20254;-77
2022/11/11 02:27:36;;;;;;;0.57;0.57;;;12.40;99.90;;;;;;5097693;28;20203;-76
2022/11/11 02:30:05;;;;;;;0.40;0.40;;;12.40;99.90;;;;;;5097718;28;20262;-77
2022/11/11 02:32:34;;;;;;;0.85;0.85;;;12.40;99.90;;;;;;5097782;28;20202;-77
2022/11/11 02:34:59;;;;;;;0.50;0.50;;;12.40;99.90;;;;;;5115862;28;20572;-78
2022/11/11 02:37:26;;;;;;;3.30;1.42;;;12.40;99.90;;;;;;5097230;28;20195;-77
2022/11/11 02:40:00;;;;;;;0.50;0.50;;;12.50;99.90;;;;;;5097452;28;20192;-78
2022/11/11 02:42:26;;;;;;;36.28;1.95;;;12.50;99.90;;;;;;5097566;28;20195;-78
2022/11/11 02:44:57;;;;;;;0.90;0.90;;;12.50;99.90;;;;;;5097227;28;20196;-78
2022/11/11 02:47:26;;;;;;;0.43;0.43;;;12.50;99.90;;;;;;5115555;28;20558;-79
2022/11/11 02:49:52;;;;;;;0.80;0.80;;;12.40;99.90;;;;;;5096677;28;20280;-79
2022/11/11 02:52:18;;;;;;;0.50;0.50;;;12.40;99.90;;;;;;5097533;28;20328;-78
2022/11/11 02:54:44;;;;;;;0.60;0.60;;;12.40;99.90;;;;;;5096648;28;20222;-78
2022/11/11 02:57:10;;;;;;;0.60;0.60;;;12.50;99.90;;;;;;5095972;28;20191;-78
2022/11/11 02:59:39;;;;;;;2.58;1.73;;;12.40;99.90;;;;;;5114778;28;20191;-77
2022/11/11 03:02:05;;;;;;;0.50;0.50;;;12.40;99.90;;;;;;5114342;28;20688;-78
2022/11/11 03:04:40;;;;;;;0.50;0.50;;;12.50;99.90;;;;;;5096444;28;20620;-77
2022/11/11 03:07:06;;;;;;;1.67;1.58;;;12.50;99.90;;;;;;5096345;28;20616;-77
2022/11/11 03:09:32;;;;;;;2.00;1.67;;;12.50;99.90;;;;;;5093850;28;20563;-77
2022/11/11 03:11:59;;;;;;;0.73;0.73;;;12.50;99.90;;;;;;5094202;28;20241;-77
2022/11/11 03:14:28;;;;;;;0.77;0.77;;;12.50;99.90;;;;;;5075875;28;20220;-77
2022/11/11 03:19:38;;;;;;;0.57;0.57;;;12.50;99.90;;;;;;5114605;28;20242;-78
2022/11/11 03:22:07;;;;;;;0.45;0.45;;;12.50;99.90;;;;;;5096206;28;20600;-78
2022/11/11 03:27:16;;;;;;;0.40;0.40;;;12.60;99.90;;;;;;5094031;28;20567;-78
2022/11/11 03:29:42;;;;;;;0.85;0.85;;;12.60;99.90;;;;;;5075578;28;20196;-78
2022/11/11 03:32:08;;;;;;;0.47;0.47;;;12.60;99.90;;;;;;5075632;28;20224;-77
2022/11/11 03:34:34;;;;;;;0.80;0.70;;;12.60;99.90;;;;;;5075239;28;20215;-77
2022/11/11 03:39:52;;;;;;;4.68;1.35;;;12.60;99.90;;;;;;5094039;28;20596;-77
2022/11/11 03:42:17;;;;;;;0.50;0.50;;;12.70;99.90;;;;;;5075485;28;20562;-75
2022/11/11 03:44:43;;;;;;;1.65;1.35;;;12.70;99.90;;;;;;5093694;28;20200;-76
2022/11/11 03:47:09;;;;;;;2.05;0.98;;;12.70;99.90;;;;;;5077178;28;20193;-78
2022/11/11 03:49:35;;;;;;;0.60;0.60;;;12.70;99.90;;;;;;5095533;28;20650;-77
2022/11/11 03:52:00;;;;;;;0.88;0.88;;;12.70;99.90;;;;;;5095696;28;20191;-77
2022/11/11 03:54:27;;;;;;;0.50;0.50;;;12.80;99.90;;;;;;5095179;28;20309;-78
2022/11/11 03:57:29;;;;;;;0.65;0.65;;;12.80;99.90;;;;;;5095444;28;20192;-77
2022/11/11 03:59:39;;;;;;;1.15;1.05;;;12.80;99.90;;;;;;5113520;28;20665;-76
2022/11/11 04:10:23;;;;;;;0.50;0.50;;;12.90;99.90;;;;;;5114015;28;20203;-78
2022/11/11 04:21:41;;;;;;;0.60;0.60;;;12.90;99.90;;;;;;5113327;28;20237;-78
2022/11/11 04:23:48;;;;;;;0.75;0.75;;;12.90;99.90;;;;;;5113471;28;20198;-78
2022/11/11 04:26:14;;;;;;;16.45;1.00;;;12.90;99.90;;;;;;5095296;28;20290;-78
2022/11/11 04:31:24;;;;;;;0.45;0.45;;;12.90;99.90;;;;;;5113418;28;20230;-78
2022/11/11 04:33:50;;;;;;;0.50;0.50;;;12.90;99.90;;;;;;5094316;28;20267;-76
2022/11/11 04:36:15;;;;;;;0.80;0.80;;;12.90;99.90;;;;;;5078528;28;20603;-77
2022/11/11 04:41:25;;;;;;;0.70;0.70;;;12.90;99.90;;;;;;5113388;28;20190;-77
2022/11/11 04:46:34;;;;;;;2.60;1.85;;;12.90;99.90;;;;;;5113122;28;20199;-77
2022/11/11 04:49:00;;;;;;;0.45;0.45;;;12.90;99.90;;;;;;5113323;28;20183;-77
2022/11/11 04:52:25;;;;;;;1.90;0.95;;;12.90;99.90;;;;;;5095227;28;20202;-77
2022/11/11 04:54:14;;;;;;;9.30;1.77;;;12.90;99.90;;;;;;5112670;28;20277;-78
2022/11/11 04:56:49;;;;;;;3.20;0.73;;;12.80;99.90;;;;;;5094647;28;20195;-78
2022/11/11 04:59:15;;;;;;;0.95;0.95;;;12.90;99.90;;;;;;5095258;28;20605;-78
2022/11/11 05:04:41;;;;;;;0.65;0.65;;;12.90;99.90;;;;;;5100564;28;20735;-78
2022/11/11 05:09:51;;;;;;;0.60;0.60;;;13.00;99.90;;;;;;5113190;28;20734;-76
2022/11/11 05:12:17;;;;;;;0.55;0.55;;;13.00;99.90;;;;;;5115656;28;20200;-77
2022/11/11 05:22:55;;;;;;;3.03;1.75;;;13.00;99.90;;;;;;5117596;28;20197;-78
2022/11/11 05:25:25;;;;;;;0.60;0.60;;;12.90;99.90;;;;;;5128389;27;20297;-77
2022/11/11 05:27:52;;;;;;;3.40;1.08;;;12.90;99.90;;;;;;5137105;27;20652;-77
2022/11/11 05:30:19;;;;;;;0.50;0.50;;;12.90;99.90;;;;;;5118813;27;20205;-77
2022/11/11 05:32:45;;;;;;;1.35;1.15;;;12.90;99.90;;;;;;5118572;27;20205;-77
2022/11/11 05:35:12;;;;;;;0.55;0.55;;;12.90;99.90;;;;;;5118941;27;20215;-77
2022/11/11 05:37:38;;;;;;;0.52;0.52;;;12.90;99.90;;;;;;5136885;27;20197;-77
2022/11/11 05:40:04;;;;;;;1.08;0.98;;;12.90;99.90;;;;;;5132617;27;20191;-77
2022/11/11 05:42:40;;;;;;;1.20;0.95;;;12.90;99.90;;;;;;5116721;28;20188;-77
2022/11/11 05:45:06;;;;;;;4.35;1.95;;;12.90;99.90;;;;;;5117172;28;20584;-78
2022/11/11 05:47:31;;;;;;;5.03;1.65;;;12.90;99.90;;;;;;5099136;28;20653;-77
2022/11/11 05:49:57;;;;;;;0.77;0.77;;;13.00;99.90;;;;;;5118492;28;20195;-77
2022/11/11 05:52:45;;;;;;;5.25;1.42;;;13.00;99.90;;;;;;5120222;28;20221;-77
2022/11/11 05:55:14;;;;;;;0.88;0.88;;;13.00;99.90;;;;;;5099348;28;20315;-77
2022/11/11 06:01:36;;;;;;;0.70;0.70;;;13.00;99.90;;;;;;4958870;29;20220;-78
2022/11/11 06:04:12;;;;;;;0.40;0.40;;;13.00;99.90;;;;;;4959665;29;20217;-77
2022/11/11 06:07:07;;;;;;;1.25;1.15;;;13.00;99.90;;;;;;4941715;29;20709;-77
2022/11/11 06:09:41;;;;;;;0.60;0.60;;;12.90;99.90;;;;;;4973332;28;20237;-80
2022/11/11 06:12:07;;;;;;;1.27;1.05;;;13.00;99.90;;;;;;5021456;28;20244;-76
2022/11/11 06:14:52;;;;;;;0.52;0.52;;;13.00;99.90;;;;;;5025425;28;20239;-77
2022/11/11 06:17:23;;;;;;;1.02;1.00;;;13.00;99.90;;;;;;5112611;28;20195;-77
2022/11/11 06:20:23;;;;;;;0.40;0.40;;;13.00;99.90;;;;;;5103743;28;20242;-78
2022/11/11 06:23:04;;;;;;;0.50;0.50;;;13.00;99.90;;;;;;5058860;28;20206;-80
2022/11/11 06:28:35;;;;;;;2.25;1.20;;;13.10;99.90;;;;;;5052776;28;20267;-77
2022/11/11 06:31:01;;;;;;;0.73;0.73;;;13.10;99.90;;;;;;5052473;28;20205;-78
2022/11/11 06:33:27;;;;;;;0.50;0.50;;;13.10;99.90;;;;;;5075411;28;20773;-78
2022/11/11 06:35:52;;;;;;;0.82;0.82;;;13.10;99.90;;;;;;5096233;28;20214;-78
2022/11/11 06:38:18;;;;;;;1.45;0.95;;;13.10;99.90;;;;;;5114992;28;20187;-79
2022/11/11 06:40:47;;;;;;;0.40;0.40;;;13.10;99.90;;;;;;5096696;28;20569;-78
2022/11/11 06:43:13;;;;;;;0.40;0.40;;;13.00;99.90;;;;;;5096597;28;20192;-78
2022/11/11 06:45:39;;;;;;;5.05;1.45;;;13.00;99.90;;;;;;5114756;28;20194;-76
2022/11/11 06:48:05;;;;;;;0.50;0.50;;;13.00;99.90;;;;;;5096222;28;20313;-78
2022/11/11 06:50:32;;;;;;;18.00;1.65;;;13.00;99.90;;;;;;5114823;28;20187;-78
2022/11/11 06:53:08;;;;;;;1.75;1.58;;;13.00;99.90;;;;;;5114796;28;20203;-78
2022/11/11 06:55:37;;;;;;;10.15;1.48;;;13.00;99.90;;;;;;5102756;28;20246;-77
2022/11/11 06:58:11;;;;;;;2.67;0.68;;;13.00;99.90;;;;;;5114794;28;20677;-78
2022/11/11 07:00:40;;;;;;;1.77;1.05;;;13.00;99.90;;;;;;5096345;28;20562;-78
2022/11/11 07:03:08;;;;;;;0.98;0.90;;;13.00;99.90;;;;;;5129276;27;20691;-78
2022/11/11 07:05:34;;;;;;;0.77;0.77;;;13.00;99.90;;;;;;5135051;27;20589;-78
2022/11/11 07:08:11;;;;;;;4.85;1.33;;;13.00;99.90;;;;;;5135097;27;20183;-78
2022/11/11 07:10:40;;;;;;;0.50;0.50;;;13.00;99.90;;;;;;5135038;27;20186;-79
2022/11/11 07:13:06;;;;;;;5.78;1.05;;;13.00;99.90;;;;;;5116753;27;20217;-78
2022/11/11 07:15:33;;;;;;;1.85;0.95;;;13.00;99.90;;;;;;5116442;27;20303;-78
2022/11/11 07:17:59;;;;;;;0.75;0.75;;;13.10;99.90;;;;;;5134847;27;20218;-79
2022/11/11 07:20:28;;;;;;;0.50;0.50;;;13.10;99.90;;;;;;5116319;27;20237;-79
2022/11/11 07:22:53;;;;;;;3.60;1.20;;;13.10;99.90;;;;;;5116464;27;20657;-79
2022/11/11 07:25:19;;;;;;;13.35;1.13;;;13.10;99.90;;;;;;5121481;27;20233;-79
2022/11/11 07:27:45;;;;;;;0.70;0.70;;;13.10;99.90;;;;;;5096207;28;20192;-78
2022/11/11 07:30:11;;;;;;;1.00;0.98;;;13.10;99.90;;;;;;5095918;28;20252;-77
2022/11/11 07:32:47;;;;;;;4.30;1.52;;;13.10;99.90;;;;;;5114000;28;20188;-77
2022/11/11 07:35:13;;;;;;;0.52;0.52;;;13.20;99.90;;;;;;5114104;28;20572;-78
2022/11/11 07:37:39;;;;;;;2.22;1.35;;;13.20;99.90;;;;;;5113063;28;20646;-79
2022/11/11 07:40:05;;;;;;;0.70;0.70;;;13.10;99.90;;;;;;5095905;28;20202;-78
2022/11/11 07:42:34;;;;;;;0.82;0.82;;;13.20;99.90;;;;;;5095665;28;20284;-79
2022/11/11 07:45:00;;;;;;;2.45;1.17;;;13.20;99.90;;;;;;5095741;28;20192;-78
2022/11/11 07:47:28;;;;;;;0.98;0.68;;;13.20;99.90;;;;;;5095520;28;20544;-78
2022/11/11 07:50:00;;;;;;;6.85;0.80;;;13.10;99.90;;;;;;5114016;28;20283;-77
2022/11/11 07:52:25;;;;;;;0.73;0.73;;;13.10;99.90;;;;;;5095262;28;20196;-78
2022/11/11 07:54:51;;;;;;;0.50;0.50;;;13.20;99.90;;;;;;5113333;28;20292;-78
2022/11/11 07:57:17;;;;;;;0.63;0.63;;;13.20;99.90;;;;;;5113795;28;20197;-78
2022/11/11 07:59:43;;;;;;;0.82;0.82;;;13.10;99.90;;;;;;5095146;28;20629;-79
2022/11/11 08:02:10;;;;;;;0.50;0.50;;;13.20;99.90;;;;;;5095628;28;20249;-77
2022/11/11 08:04:36;;;;;;;0.95;0.95;;;13.10;99.90;;;;;;5113586;28;20188;-78
2022/11/11 08:07:03;;;;;;;0.57;0.57;;;13.20;99.90;;;;;;5095375;28;20252;-78
2022/11/11 08:09:28;;;;;;;0.60;0.60;;;13.20;99.90;;;;;;5095246;28;20290;-77
2022/11/11 08:14:41;;;;;;;2.60;1.30;;;13.20;99.90;;;;;;5113365;28;20302;-78
2022/11/11 08:17:07;;;;;;;0.75;0.75;;;13.30;99.90;;;;;;5095015;28;20282;-77
2022/11/11 08:19:33;;;;;;;0.50;0.50;;;13.30;99.90;;;;;;5094877;28;20196;-77
2022/11/11 08:21:59;;;;;;;0.50;0.50;;;13.30;99.90;;;;;;5095201;28;20278;-78
2022/11/11 08:24:28;;;;;;;0.90;0.88;;;13.30;99.90;;;;;;5094850;28;20577;-78
2022/11/11 08:26:53;;;;;;;0.70;0.70;;;13.30;99.90;;;;;;5113244;28;20210;-78
2022/11/11 08:29:19;;;;;;;0.90;0.90;;;13.40;99.90;;;;;;5113048;28;20207;-78
2022/11/11 08:31:45;;;;;;;0.88;0.88;;;13.40;99.90;;;;;;5095059;28;20697;-78
2022/11/11 08:34:12;;;;;;;3.22;1.88;;;13.40;99.90;;;;;;5094925;28;20306;-79
2022/11/11 08:36:38;;;;;;;0.40;0.40;;;13.50;99.90;;;;;;5094534;28;20206;-79
2022/11/11 08:39:04;;;;;;;0.57;0.57;;;13.40;99.90;;;;;;5115333;28;20560;-77
2022/11/11 08:41:30;;;;;;;0.70;0.70;;;13.50;99.90;;;;;;5115220;28;20195;-77
2022/11/11 08:43:56;;;;;;;1.63;1.23;;;13.50;99.90;;;;;;5094998;28;20706;-78
2022/11/11 08:46:23;;;;;;;0.90;0.80;;;13.50;99.90;;;;;;5113316;28;20281;-77
2022/11/11 08:48:49;;;;;;;1.75;1.27;;;13.50;99.90;;;;;;5100246;27;20285;-78
2022/11/11 08:51:15;;;;;;;0.93;0.75;;;13.50;99.90;;;;;;5137994;27;20601;-78
2022/11/11 08:53:41;;;;;;;8.35;1.77;;;13.50;99.90;;;;;;5119008;27;20696;-78
2022/11/11 08:56:07;;;;;;;0.82;0.73;;;13.50;99.90;;;;;;5138025;27;20253;-78
2022/11/11 08:58:33;;;;;;;0.60;0.60;;;13.50;99.90;;;;;;5119529;27;20216;-78
2022/11/11 09:01:00;;;;;;;0.88;0.88;;;13.50;99.90;;;;;;5138043;27;20198;-78
2022/11/11 09:03:26;;;;;;;0.90;0.82;;;13.50;99.90;;;;;;5138808;27;20186;-79
2022/11/11 09:05:52;;;;;;;9.23;1.30;;;13.50;99.90;;;;;;5137934;27;20721;-79
2022/11/11 09:08:18;;;;;;;1.17;1.10;;;13.60;99.90;;;;;;5119729;27;20202;-80
2022/11/11 09:10:43;;;;;;;11.02;0.90;;;13.50;99.90;;;;;;5118979;27;20285;-79
2022/11/11 09:13:09;;;;;;;7.32;0.93;;;13.60;99.90;;;;;;5133946;27;20229;-78
2022/11/11 09:15:35;;;;;;;0.55;0.55;;;13.60;99.90;;;;;;5098700;28;20222;-77
2022/11/11 09:18:02;;;;;;;0.60;0.60;;;13.60;99.90;;;;;;5098627;28;20278;-79
2022/11/11 09:20:30;;;;;;;0.52;0.50;;;13.50;99.90;;;;;;5116945;28;20187;-78
2022/11/11 09:22:56;;;;;;;0.85;0.85;;;13.70;99.90;;;;;;5116998;28;20215;-78
2022/11/11 09:25:22;;;;;;;7.13;1.95;;;13.60;99.90;;;;;;5116832;28;20199;-78
2022/11/11 09:27:59;;;;;;;0.70;0.70;;;13.60;99.90;;;;;;5116840;28;20195;-75
2022/11/11 09:30:27;;;;;;;2.97;2.03;;;13.60;99.90;;;;;;5116657;28;20202;-77
2022/11/11 09:32:53;;;;;;;1.77;1.08;;;13.60;99.90;;;;;;5116643;28;20594;-77
2022/11/11 09:35:19;;;;;;;1.27;1.17;;;13.70;99.90;;;;;;5098512;28;20658;-78
2022/11/11 09:37:59;;;;;;;3.40;1.38;;;13.60;99.90;;;;;;5098033;28;20196;-79
2022/11/11 09:40:38;;;;;;;0.52;0.52;;;13.60;99.90;;;;;;5098002;28;20195;-80
2022/11/11 09:43:27;;;;;;;0.50;0.50;;;13.60;99.90;;;;;;5098194;28;20194;-79
2022/11/11 09:46:03;;;;;;;1.08;1.00;;;13.50;99.90;;;;;;5116018;28;20211;-78
2022/11/11 09:49:08;;;;;;;0.60;0.60;;;13.60;99.90;;;;;;5116300;28;20236;-79
2022/11/11 09:51:47;;;;;;;1.02;1.00;;;13.60;99.90;;;;;;5098038;28;20187;-78
2022/11/11 09:54:18;;;;;;;2.05;1.20;;;13.60;99.90;;;;;;5116264;28;20235;-77
2022/11/11 09:56:44;;;;;;;0.98;0.98;;;13.60;99.90;;;;;;5115945;28;20270;-78
2022/11/11 09:59:22;;;;;;;7.82;1.33;;;13.60;99.90;;;;;;5115923;28;20314;-78
2022/11/11 10:01:58;;;;;;;0.63;0.63;;;13.60;99.90;;;;;;5097128;28;20214;-78
2022/11/11 10:04:32;;;;;;;4.43;0.95;;;13.60;99.90;;;;;;5097644;28;20199;-77
2022/11/11 10:07:24;;;;;;;1.20;1.13;;;13.60;99.90;;;;;;5115909;28;20680;-78
2022/11/11 10:09:59;;;;;;;1.73;0.95;;;13.60;99.90;;;;;;5115631;28;20313;-78
2022/11/11 10:12:34;;;;;;;0.77;0.77;;;13.60;99.90;;;;;;5115556;28;20187;-78
2022/11/11 10:15:00;;;;;;;1.13;1.08;;;13.60;99.90;;;;;;5097588;28;20207;-79
2022/11/11 10:17:53;;;;;;;0.60;0.60;;;13.60;99.90;;;;;;5097504;28;20201;-78
2022/11/11 10:20:29;;;;;;;1.25;1.15;;;13.60;99.90;;;;;;5115658;28;20554;-77
2022/11/11 10:23:14;;;;;;;0.82;0.82;;;13.60;99.90;;;;;;5112438;28;20228;-77
2022/11/11 10:25:53;;;;;;;0.65;0.60;;;13.60;99.90;;;;;;5114698;28;20692;-78
2022/11/11 10:28:21;;;;;;;0.82;0.82;;;13.60;99.90;;;;;;5114672;28;20199;-78
2022/11/11 10:30:52;;;;;;;2.00;1.83;;;13.60;99.90;;;;;;5115336;28;20207;-79
2022/11/11 10:33:29;;;;;;;0.55;0.55;;;13.50;99.90;;;;;;5115676;27;20666;-78
2022/11/11 10:36:01;;;;;;;0.93;0.93;;;13.60;99.90;;;;;;5114128;28;20191;-79
2022/11/11 10:39:03;;;;;;;6.22;1.20;;;13.60;99.90;;;;;;5114333;28;20243;-77
2022/11/11 10:41:47;;;;;;;0.55;0.55;;;13.60;99.90;;;;;;5021375;28;20202;-78
2022/11/11 10:44:26;;;;;;;6.40;1.60;;;13.60;99.90;;;;;;4997025;28;20211;-78
2022/11/11 10:47:02;;;;;;;0.60;0.60;;;13.70;99.90;;;;;;4997084;28;20266;-78
2022/11/11 10:49:32;;;;;;;0.95;0.85;;;13.70;99.90;;;;;;5013265;28;20243;-78
2022/11/11 10:52:18;;;;;;;0.65;0.65;;;13.70;99.90;;;;;;4996792;28;20289;-78
2022/11/11 10:54:57;;;;;;;0.50;0.50;;;13.70;99.90;;;;;;5012974;28;20219;-79
2022/11/11 10:57:28;;;;;;;2.75;1.20;;;13.70;99.90;;;;;;5013685;28;20218;-78
2022/11/11 11:00:05;;;;;;;0.50;0.50;;;13.70;99.90;;;;;;5033413;28;20205;-78
2022/11/11 11:02:49;;;;;;;0.70;0.70;;;13.70;99.90;;;;;;5017887;28;20571;-78
2022/11/11 11:05:26;;;;;;;3.50;1.20;;;13.70;99.90;;;;;;5032537;28;20197;-78
2022/11/11 11:08:01;;;;;;;1.58;1.48;;;13.70;99.90;;;;;;5015494;28;20205;-77
2022/11/11 11:10:52;;;;;;;0.60;0.60;;;13.80;99.90;;;;;;5016105;28;20202;-78
2022/11/11 11:13:44;;;;;;;0.73;0.73;;;13.80;99.90;;;;;;5016313;28;20729;-78
2022/11/11 11:16:37;;;;;;;0.40;0.40;;;13.80;99.90;;;;;;5098115;27;20681;-78
2022/11/11 11:19:18;;;;;;;0.43;0.43;;;13.80;99.90;;;;;;5102070;28;20299;-77
2022/11/11 11:21:54;;;;;;;1.70;1.00;;;13.90;99.90;;;;;;5114663;28;20194;-78
2022/11/11 11:24:36;;;;;;;26.40;0.80;;;13.90;99.90;;;;;;5113754;28;20251;-78
2022/11/11 11:27:05;;;;;;;1.98;1.40;;;13.90;99.90;;;;;;5113828;28;20710;-78
2022/11/11 11:29:41;;;;;;;0.63;0.63;;;13.90;99.90;;;;;;5113855;28;20195;-79
2022/11/11 11:32:20;;;;;;;0.50;0.50;;;13.90;99.90;;;;;;5114761;28;20672;-78
2022/11/11 11:34:52;;;;;;;4.47;1.85;;;13.90;99.90;;;;;;5114732;28;20195;-78
2022/11/11 11:37:20;;;;;;;0.60;0.60;;;14.00;99.90;;;;;;5113917;28;20203;-77
2022/11/11 11:39:57;;;;;;;0.50;0.50;;;14.00;99.90;;;;;;5114531;28;20555;-77
2022/11/11 11:42:33;;;;;;;6.38;1.92;;;14.00;99.90;;;;;;5114882;28;20267;-78
2022/11/11 11:45:28;;;;;;;1.38;1.27;;;14.10;99.90;;;;;;5114053;28;20240;-78
2022/11/11 11:48:09;;;;;;;0.95;0.93;;;14.10;99.90;;;;;;5095838;28;20662;-78
2022/11/11 11:50:45;;;;;;;0.98;0.98;;;14.10;99.90;;;;;;5114494;28;20548;-77
2022/11/11 11:53:13;;;;;;;0.98;0.98;;;14.10;99.90;;;;;;5114537;28;20187;-77
2022/11/11 11:55:44;;;;;;;0.40;0.40;;;14.10;99.90;;;;;;5095669;28;21581;-77
2022/11/11 11:58:27;;;;;;;1.90;0.52;;;14.20;99.90;;;;;;5095800;28;20607;-77
2022/11/11 12:01:10;;;;;;;0.50;0.50;;;14.20;99.90;;;;;;5095885;28;20555;-77
2022/11/11 12:04:03;;;;;;;6.72;1.60;;;14.20;99.90;;;;;;5095839;28;20558;-78
2022/11/11 12:06:38;;;;;;;0.60;0.60;;;14.20;99.90;;;;;;5095604;28;20187;-77
2022/11/11 12:09:12;;;;;;;0.60;0.60;;;14.10;99.90;;;;;;5113954;28;20191;-77
2022/11/11 12:11:53;;;;;;;0.40;0.40;;;14.10;99.90;;;;;;5095259;28;20229;-77
2022/11/11 12:14:49;;;;;;;0.40;0.40;;;14.10;99.90;;;;;;5094740;28;20272;-77
2022/11/11 12:17:39;;;;;;;0.40;0.40;;;14.10;99.90;;;;;;5095351;28;20608;-78
2022/11/11 12:20:18;;;;;;;1.95;1.25;;;14.20;99.90;;;;;;5095594;28;20187;-78
2022/11/11 12:22:50;;;;;;;0.95;0.95;;;14.20;99.90;;;;;;5094715;28;20674;-78
2022/11/11 12:26:13;;;;;;;0.60;0.60;;;14.20;99.90;;;;;;5095640;28;20191;-79
2022/11/11 12:28:57;;;;;;;0.40;0.40;;;14.20;99.90;;;;;;4994428;28;20207;-77
2022/11/11 12:31:39;;;;;;;0.55;0.55;;;14.30;99.90;;;;;;5011500;28;20238;-77
2022/11/11 12:34:30;;;;;;;1.77;1.45;;;14.30;99.90;;;;;;5065547;28;20207;-77
2022/11/11 12:37:37;;;;;;;0.40;0.40;;;14.30;99.90;;;;;;5094897;28;20286;-77
2022/11/11 12:40:20;;;;;;;0.50;0.50;;;14.20;99.90;;;;;;5031528;28;20541;-77
2022/11/11 12:43:08;;;;;;;1.55;1.20;;;14.30;99.90;;;;;;5114512;28;20191;-78
2022/11/11 12:45:55;;;;;;;0.60;0.60;;;14.30;99.90;;;;;;5094974;28;20606;-76
2022/11/11 12:48:47;;;;;;;0.45;0.45;;;14.30;99.90;;;;;;5113683;28;20219;-77
2022/11/11 12:51:19;;;;;;;0.50;0.50;;;14.20;99.90;;;;;;5113685;28;20188;-78
2022/11/11 12:54:00;;;;;;;1.35;0.80;;;14.20;99.90;;;;;;5094651;28;20246;-78
2022/11/11 12:57:04;;;;;;;0.50;0.50;;;14.20;99.90;;;;;;5113232;28;20227;-77
2022/11/11 12:59:57;;;;;;;0.60;0.60;;;14.10;99.90;;;;;;5010726;28;20696;-77
2022/11/11 13:02:49;;;;;;;0.88;0.77;;;14.10;99.90;;;;;;4994288;28;20660;-78
2022/11/11 13:05:33;;;;;;;1.10;0.93;;;14.10;99.90;;;;;;4994280;28;20265;-78
2022/11/11 13:08:08;;;;;;;1.67;0.75;;;14.10;99.90;;;;;;4994140;28;20210;-77
2022/11/11 13:10:55;;;;;;;0.50;0.50;;;14.00;99.90;;;;;;4984830;28;20755;-77
2022/11/11 13:13:55;;;;;;;0.40;0.40;;;14.00;99.90;;;;;;4990832;28;20237;-78
2022/11/11 13:16:23;;;;;;;1.85;1.40;;;14.00;99.90;;;;;;4990835;28;20625;-78
2022/11/11 13:19:01;;;;;;;2.30;1.10;;;13.90;99.90;;;;;;4991048;28;20200;-77
2022/11/11 13:21:49;;;;;;;0.40;0.40;;;13.90;99.90;;;;;;4990755;28;20406;-77
2022/11/11 13:24:20;;;;;;;20.45;1.95;;;13.90;99.90;;;;;;4974607;28;20211;-77
2022/11/11 13:26:48;;;;;;;0.40;0.40;;;13.80;99.90;;;;;;4991068;28;20202;-77
2022/11/11 13:30:05;;;;;;;0.60;0.60;;;13.80;99.90;;;;;;5001440;28;20207;-77
2022/11/11 13:32:48;;;;;;;5.30;1.83;;;13.80;99.90;;;;;;5048580;28;20189;-77
2022/11/11 13:35:23;;;;;;;2.20;1.35;;;13.80;99.90;;;;;;5056318;28;20215;-77
2022/11/11 13:37:49;;;;;;;1.20;0.93;;;13.80;99.90;;;;;;5075853;28;20189;-77
2022/11/11 13:40:40;;;;;;;8.38;0.93;;;13.80;99.90;;;;;;5059056;28;20193;-77
2022/11/11 13:43:27;;;;;;;0.50;0.50;;;13.70;99.90;;;;;;5077811;28;20282;-78
2022/11/11 13:45:55;;;;;;;2.40;0.85;;;13.80;99.90;;;;;;5077757;28;20679;-77
2022/11/11 13:48:37;;;;;;;0.65;0.50;;;13.80;99.90;;;;;;5077628;28;20188;-77
2022/11/11 13:51:38;;;;;;;0.73;0.73;;;13.70;99.90;;;;;;5095861;28;20693;-77
2022/11/11 13:54:26;;;;;;;0.50;0.50;;;13.70;99.90;;;;;;5095593;28;20256;-78
2022/11/11 13:56:53;;;;;;;2.47;1.20;;;13.70;99.90;;;;;;5097079;28;20670;-77
2022/11/11 13:59:32;;;;;;;1.10;0.90;;;13.70;99.90;;;;;;5097746;28;20544;-77
2022/11/11 14:02:19;;;;;;;1.00;0.90;;;13.70;99.90;;;;;;5097985;28;20195;-77
2022/11/11 14:05:11;;;;;;;0.50;0.50;;;13.70;99.90;;;;;;5097719;28;20227;-76
2022/11/11 14:07:48;;;;;;;0.40;0.40;;;13.70;99.90;;;;;;5112501;28;20204;-79
2022/11/11 14:10:17;;;;;;;0.80;0.60;;;13.70;99.90;;;;;;5115991;28;20620;-78
2022/11/11 14:12:45;;;;;;;0.40;0.40;;;13.70;99.90;;;;;;5097844;28;20263;-77
2022/11/11 14:15:32;;;;;;;0.50;0.50;;;13.70;99.90;;;;;;5115847;28;20239;-76
2022/11/11 14:17:58;;;;;;;2.47;1.10;;;13.70;99.90;;;;;;5097966;28;20670;-77
2022/11/11 14:20:33;;;;;;;0.75;0.75;;;13.70;99.90;;;;;;5097335;28;20199;-77
2022/11/11 14:23:17;;;;;;;3.65;1.05;;;13.70;99.90;;;;;;5097405;28;20187;-78
2022/11/11 14:25:43;;;;;;;0.40;0.40;;;13.70;99.90;;;;;;5092248;28;20566;-77
2022/11/11 14:28:25;;;;;;;3.55;0.77;;;13.70;99.90;;;;;;5077278;28;20204;-77
2022/11/11 14:30:51;;;;;;;0.60;0.60;;;13.70;99.90;;;;;;5076846;28;20261;-78
2022/11/11 14:33:50;;;;;;;0.60;0.60;;;13.60;99.90;;;;;;5077146;28;20663;-78
2022/11/11 14:36:34;;;;;;;0.80;0.80;;;13.60;99.90;;;;;;5087185;28;20261;-76
2022/11/11 14:39:21;;;;;;;1.00;0.93;;;13.60;99.90;;;;;;5095131;28;20188;-76